Cape Star — VRFM2 — position and weather

sailwx.info

Track history (hours):
 
Tides and Currents Weather Stations Pressure Air Temp Water Temp Dewpoint Dewpoint Depression Visibility Wind Speed Wind Dir Waves Ship Positions

Cape Star

Last reported at 2018-May-22 04:37 UTC. Time now 2018-May-28 05:07 UTC.
Position N 31°17' E 032°22'.

Length 292 m; draft 18.4 m.

Type: Cargo ship. MMSI: 477826100.

Date/timePositionNaut miles runAvg speedWind from/ knotsBaromVisibWave heightAir tempDewpointWater temp
2018-May-22 04:37N 31°17' E 032°22'1 8.3
2018-May-22 04:30N 31°18' E 032°22'10 5.0
2018-May-22 02:31N 31°28' E 032°20'1 6.4
2018-May-22 02:24N 31°28' E 032°20'2 3.5
2018-May-22 01:57N 31°28' E 032°18'77 4.5
2018-May-21 08:56N 32°24' E 031°14'1311.8
2018-May-21 07:50N 32°33' E 031°04'38011.6
2018-May-19 23:10N 37°13' E 025°50'211.5
2018-May-19 23:00N 37°14' E 025°48'510.4
2018-May-19 22:30N 37°18' E 025°45'611.6
2018-May-19 22:00N 37°24' E 025°45'1211.7
2018-May-19 21:01N 37°36' E 025°45'211.4
2018-May-19 20:52N 37°37' E 025°45'411.2
2018-May-19 20:30N 37°41' E 025°45'  
2018-May-16 11:39N 44°28' E 030°24'5010.4
2018-May-16 06:51N 45°16' E 030°43'1110.8
2018-May-16 05:51N 45°26' E 030°48'410.9
2018-May-16 05:30N 45°30' E 030°49'710.9
2018-May-16 04:51N 45°37' E 030°52'39 9.8
2018-May-16 00:53N 46°15' E 030°54'410.8
2018-May-16 00:30N 46°19' E 030°55'511.0
2018-May-16 00:00N 46°25' E 030°55'510.5
2018-May-15 23:30N 46°30' E 030°55'4 7.0
2018-May-15 23:00N 46°33' E 030°58'5 0.2
2018-May-15 00:07N 46°37' E 031°02'0 0.0
2018-May-14 23:55N 46°37' E 031°02'0 0.0
2018-May-14 23:25N 46°37' E 031°02'0 0.0
2018-May-14 22:55N 46°37' E 031°02'0 0.0
2018-May-14 22:25N 46°37' E 031°02'0 0.0
2018-May-14 21:55N 46°37' E 031°02'0 0.0
2018-May-14 20:13N 46°37' E 031°02'0 0.0
2018-May-14 19:55N 46°37' E 031°02'0 0.0
2018-May-14 18:49N 46°37' E 031°02'0 0.0
2018-May-14 18:25N 46°37' E 031°02'0 0.0
2018-May-14 17:55N 46°37' E 031°02'0 0.0
2018-May-14 17:19N 46°37' E 031°02'0 0.0
2018-May-14 16:55N 46°37' E 031°02'  
Track history (hours):
 
Tides and Currents Weather Stations Pressure Air Temp Water Temp Dewpoint Dewpoint Depression Visibility Wind Speed Wind Dir Waves Ship Positions

Cape Star

Last reported at 2018-May-22 04:37 UTC. Time now 2018-May-28 05:07 UTC.
Position N 31°17' E 032°22'.

Length 292 m; draft 18.4 m.

Type: Cargo ship. MMSI: 477826100.

Date/timePositionNaut miles runAvg speedWind from/ knotsBaromVisibWave heightAir tempDewpointWater temp
2018-May-22 04:37N 31°17' E 032°22'1 8.3
2018-May-22 04:30N 31°18' E 032°22'10 5.0
2018-May-22 02:31N 31°28' E 032°20'1 6.4
2018-May-22 02:24N 31°28' E 032°20'2 3.5
2018-May-22 01:57N 31°28' E 032°18'77 4.5
2018-May-21 08:56N 32°24' E 031°14'1311.8
2018-May-21 07:50N 32°33' E 031°04'38011.6
2018-May-19 23:10N 37°13' E 025°50'211.5
2018-May-19 23:00N 37°14' E 025°48'510.4
2018-May-19 22:30N 37°18' E 025°45'611.6
2018-May-19 22:00N 37°24' E 025°45'1211.7
2018-May-19 21:01N 37°36' E 025°45'211.4
2018-May-19 20:52N 37°37' E 025°45'411.2
2018-May-19 20:30N 37°41' E 025°45'  
2018-May-16 11:39N 44°28' E 030°24'5010.4
2018-May-16 06:51N 45°16' E 030°43'1110.8
2018-May-16 05:51N 45°26' E 030°48'410.9
2018-May-16 05:30N 45°30' E 030°49'710.9
2018-May-16 04:51N 45°37' E 030°52'39 9.8
2018-May-16 00:53N 46°15' E 030°54'410.8
2018-May-16 00:30N 46°19' E 030°55'511.0
2018-May-16 00:00N 46°25' E 030°55'510.5
2018-May-15 23:30N 46°30' E 030°55'4 7.0
2018-May-15 23:00N 46°33' E 030°58'5 0.2
2018-May-15 00:07N 46°37' E 031°02'0 0.0
2018-May-14 23:55N 46°37' E 031°02'0 0.0
2018-May-14 23:25N 46°37' E 031°02'0 0.0
2018-May-14 22:55N 46°37' E 031°02'0 0.0
2018-May-14 22:25N 46°37' E 031°02'0 0.0
2018-May-14 21:55N 46°37' E 031°02'0 0.0
2018-May-14 20:13N 46°37' E 031°02'0 0.0
2018-May-14 19:55N 46°37' E 031°02'0 0.0
2018-May-14 18:49N 46°37' E 031°02'0 0.0
2018-May-14 18:25N 46°37' E 031°02'0 0.0
2018-May-14 17:55N 46°37' E 031°02'0 0.0
2018-May-14 17:19N 46°37' E 031°02'0 0.0
2018-May-14 16:55N 46°37' E 031°02'  

Dump ship's entire track history